Time;durP1;ratioP1;P1;durP2;ratioP2;P2;SDS_P1;SDS_P2;PMS_P1;PMS_P2;Temp;Humidity;BMP_temperature;BMP_pressure;BME280_temperature;BME280_humidity;BME280_pressure;Samples;Min_cycle;Max_cycle;Signal;HPM_P1;HPM_P2
2022/07/16 00:03:14;;;;;;;1.48;1.00;;;;;;;17.02;100.00;102052.66;2614691;36;20532;-58
2022/07/16 00:05:42;;;;;;;3.07;1.30;;;;;;;16.98;100.00;102054.78;2615228;36;20034;-57
2022/07/16 00:08:11;;;;;;;4.47;1.50;;;;;;;17.02;100.00;102044.47;2615347;31;20581;-58
2022/07/16 00:10:42;;;;;;;2.53;1.55;;;;;;;16.93;100.00;102039.91;2615583;36;20038;-61
2022/07/16 00:13:10;;;;;;;1.77;1.30;;;;;;;16.90;100.00;102032.06;2615282;36;20494;-59
2022/07/16 00:15:38;;;;;;;1.90;1.20;;;;;;;16.84;100.00;102032.63;2616010;36;20026;-58
2022/07/16 00:20:49;;;;;;;1.80;1.30;;;;;;;16.89;100.00;102030.38;2615746;36;20437;-57
2022/07/16 00:23:17;;;;;;;3.43;1.70;;;;;;;16.81;100.00;102039.22;2614263;31;20042;-55
2022/07/16 00:25:48;;;;;;;3.03;1.48;;;;;;;16.83;100.00;102039.94;2615181;36;20350;-58
2022/07/16 00:28:16;;;;;;;2.40;1.50;;;;;;;16.87;100.00;102032.34;2615043;36;20045;-58
2022/07/16 00:30:44;;;;;;;5.40;1.47;;;;;;;16.87;100.00;102038.69;2615556;36;20053;-58
2022/07/16 00:33:13;;;;;;;2.67;1.57;;;;;;;16.85;100.00;102039.78;2615732;36;20112;-59
2022/07/16 00:35:41;;;;;;;3.10;1.50;;;;;;;16.87;100.00;102035.06;2615203;36;20302;-58
2022/07/16 00:38:10;;;;;;;5.80;1.40;;;;;;;16.91;100.00;102031.91;2614619;36;20030;-58
2022/07/16 00:40:38;;;;;;;4.32;1.83;;;;;;;16.99;100.00;102028.47;2615398;36;20114;-58
2022/07/16 00:43:12;;;;;;;3.78;1.73;;;;;;;16.91;100.00;102037.34;2615205;31;20022;-58
2022/07/16 00:45:41;;;;;;;4.22;1.90;;;;;;;16.99;100.00;102034.75;2615318;36;20026;-57
2022/07/16 00:48:11;;;;;;;2.63;1.40;;;;;;;17.00;100.00;102032.88;2614879;36;20058;-57
2022/07/16 00:50:40;;;;;;;5.70;1.83;;;;;;;17.00;100.00;102027.44;2615453;36;20042;-58
2022/07/16 00:53:11;;;;;;;4.18;1.83;;;;;;;16.98;100.00;102037.63;2615053;36;20054;-59
2022/07/16 00:55:40;;;;;;;3.67;2.17;;;;;;;17.01;100.00;102031.88;2615080;36;20058;-56
2022/07/16 00:58:11;;;;;;;5.95;1.95;;;;;;;17.04;100.00;102034.31;2614112;31;20427;-57
2022/07/16 01:00:39;;;;;;;2.67;1.70;;;;;;;17.02;100.00;102030.88;2614128;36;20045;-58
2022/07/16 01:03:08;;;;;;;3.53;1.70;;;;;;;17.02;100.00;102030.88;2614094;36;20042;-56
2022/07/16 01:05:37;;;;;;;2.88;1.63;;;;;;;17.08;100.00;102035.72;2615712;36;20602;-58
2022/07/16 01:08:06;;;;;;;3.97;1.98;;;;;;;17.04;100.00;102028.00;2615033;36;20090;-57
2022/07/16 01:10:35;;;;;;;5.38;2.08;;;;;;;17.05;100.00;102024.25;2614647;31;20038;-58
2022/07/16 01:13:04;;;;;;;3.42;1.67;;;;;;;17.08;100.00;102029.44;2614286;31;20030;-61
2022/07/16 01:15:36;;;;;;;3.50;1.77;;;;;;;17.07;100.00;102030.44;2615301;36;20525;-57
2022/07/16 01:18:04;;;;;;;3.42;1.85;;;;;;;17.15;100.00;102025.94;2615271;36;20035;-57
2022/07/16 01:20:32;;;;;;;3.13;1.80;;;;;;;17.15;100.00;102025.94;2614929;36;20038;-58
2022/07/16 01:23:02;;;;;;;2.73;1.73;;;;;;;17.17;100.00;102029.38;2615298;36;20058;-58
2022/07/16 01:25:33;;;;;;;4.93;2.10;;;;;;;17.15;100.00;102023.22;2615200;36;20473;-57
2022/07/16 01:28:01;;;;;;;3.63;1.75;;;;;;;17.16;100.00;102024.91;2615219;36;20037;-54
2022/07/16 01:30:30;;;;;;;4.40;1.80;;;;;;;17.18;100.00;102024.78;2613828;36;20037;-58
2022/07/16 01:32:58;;;;;;;2.03;1.55;;;;;;;17.15;100.00;102025.94;2615157;36;20350;-57
2022/07/16 01:35:26;;;;;;;2.97;2.60;;;;;;;17.16;100.00;102022.19;2615059;36;20151;-57
2022/07/16 01:37:55;;;;;;;3.10;1.80;;;;;;;17.15;100.00;102017.78;2614256;36;20330;-59
2022/07/16 01:40:23;;;;;;;5.47;1.83;;;;;;;17.13;100.00;102027.94;2615127;31;20101;-54
2022/07/16 01:42:54;;;;;;;2.73;1.80;;;;;;;17.20;100.00;102021.94;2614173;36;20034;-58
2022/07/16 01:45:22;;;;;;;4.47;1.60;;;;;;;17.21;100.00;102023.63;2607896;36;20031;-57
2022/07/16 01:47:50;;;;;;;3.75;1.85;;;;;;;17.11;100.00;102024.53;2615121;31;20034;-53
2022/07/16 01:50:19;;;;;;;3.87;1.70;;;;;;;17.12;100.00;102020.81;2615561;31;20093;-58
2022/07/16 01:52:47;;;;;;;3.27;2.00;;;;;;;17.16;100.00;102022.19;2616224;36;20844;-58
2022/07/16 01:55:15;;;;;;;2.90;1.90;;;;;;;17.11;100.00;102029.13;2614922;36;20061;-58
2022/07/16 01:57:44;;;;;;;3.90;1.93;;;;;;;17.15;100.00;102031.41;2614727;36;20065;-57
2022/07/16 02:00:16;;;;;;;3.07;2.13;;;;;;;17.09;100.00;102021.13;2615731;36;20673;-57
2022/07/16 02:02:44;;;;;;;2.13;1.58;;;;;;;17.09;100.00;102029.28;2614781;36;20221;-55
2022/07/16 02:05:12;;;;;;;2.57;1.70;;;;;;;17.06;100.00;102032.28;2615135;36;20037;-57
2022/07/16 02:07:41;;;;;;;2.27;1.77;;;;;;;17.05;100.00;102030.59;2614985;36;20026;-55
2022/07/16 02:10:10;;;;;;;4.25;2.10;;;;;;;17.07;100.00;102044.88;2614913;36;20369;-57
2022/07/16 02:12:38;;;;;;;3.15;1.50;;;;;;;17.09;100.00;102033.84;2613530;31;20042;-57
2022/07/16 02:15:07;;;;;;;2.97;1.80;;;;;;;17.10;100.00;102039.13;2614923;36;20439;-57
2022/07/16 02:17:39;;;;;;;3.42;1.83;;;;;;;17.08;100.00;102038.44;2615346;36;20042;-57
2022/07/16 02:20:11;;;;;;;3.38;1.60;;;;;;;17.07;100.00;102033.16;2615118;36;20034;-57
2022/07/16 02:22:40;;;;;;;4.32;1.83;;;;;;;17.08;100.00;102030.28;2613827;31;20041;-56
2022/07/16 02:25:10;;;;;;;2.80;2.00;;;;;;;17.14;100.00;102034.28;2614768;36;20397;-55
2022/07/16 02:28:05;;;;;;;2.72;1.90;;;;;;;17.16;100.00;102030.38;2615030;36;20574;-55
2022/07/16 02:30:27;;;;;;;2.85;1.90;;;;;;;17.07;100.00;102039.44;2614088;31;20414;-57
2022/07/16 02:32:58;;;;;;;4.47;2.10;;;;;;;16.97;100.00;102041.34;2614397;36;20062;-56
2022/07/16 02:35:27;;;;;;;3.83;2.05;;;;;;;17.05;100.00;102036.03;2614856;31;20299;-57
2022/07/16 02:37:55;;;;;;;3.42;2.13;;;;;;;17.07;100.00;102038.59;2615825;31;20508;-57
2022/07/16 02:40:24;;;;;;;2.90;2.03;;;;;;;17.10;100.00;102039.13;2614535;36;20061;-57
2022/07/16 02:42:52;;;;;;;5.97;2.40;;;;;;;17.11;100.00;102035.41;2615327;36;20725;-58
2022/07/16 02:45:20;;;;;;;4.97;1.70;;;;;;;17.15;100.00;102045.00;2614487;36;20307;-57
2022/07/16 02:47:49;;;;;;;3.77;2.10;;;;;;;17.18;100.00;102046.53;2615133;36;20146;-60
2022/07/16 02:50:21;;;;;;;3.47;2.13;;;;;;;17.17;100.00;102044.84;2615527;31;20674;-53
2022/07/16 02:52:50;;;;;;;4.43;1.92;;;;;;;17.14;100.00;102051.44;2614498;36;20280;-53
2022/07/16 02:55:19;;;;;;;4.07;1.98;;;;;;;17.11;100.00;102043.56;2614702;36;20073;-55
2022/07/16 02:57:47;;;;;;;2.65;1.83;;;;;;;17.20;100.00;102051.84;2614423;36;20035;-57
2022/07/16 03:00:18;;;;;;;2.77;1.83;;;;;;;17.23;100.00;102054.28;2614582;36;20042;-57
2022/07/16 03:02:47;;;;;;;4.22;2.38;;;;;;;17.29;100.00;102057.22;2614407;36;20344;-60
2022/07/16 03:05:17;;;;;;;5.22;2.00;;;;;;;17.30;100.00;102055.38;2615418;36;21124;-57
2022/07/16 03:07:47;;;;;;;3.33;2.05;;;;;;;17.35;100.00;102061.22;2615028;36;20031;-61
2022/07/16 03:10:16;;;;;;;3.25;1.88;;;;;;;17.40;100.00;102060.75;2614637;36;20034;-53
2022/07/16 03:12:45;;;;;;;4.47;2.10;;;;;;;17.34;100.00;102070.38;2615310;31;20628;-56
2022/07/16 03:15:16;;;;;;;3.87;1.73;;;;;;;17.43;100.00;102071.34;2614874;36;20085;-58
2022/07/16 03:17:44;;;;;;;3.60;1.30;;;;;;;17.51;100.00;102075.00;2615248;31;20334;-58
2022/07/16 03:20:15;;;;;;;4.55;1.60;;;;;;;17.48;100.00;102079.91;2615771;36;20065;-59
2022/07/16 03:22:49;;;;;;;2.67;1.45;;;;;;;17.38;100.00;102079.97;2616683;36;20039;-55
2022/07/16 03:25:19;;;;;;;3.08;1.50;;;;;;;17.53;100.00;102085.75;2614237;36;20078;-54
2022/07/16 03:27:47;;;;;;;;;;;;;;;17.52;100.00;102089.50;2614570;36;20039;-58
2022/07/16 03:30:17;;;;;;;3.33;1.30;;;;;;;17.44;100.00;102090.22;2615040;36;20339;-58
2022/07/16 03:32:45;;;;;;;2.05;1.10;;;;;;;17.35;100.00;102091.16;2614512;36;20042;-57
2022/07/16 03:35:15;;;;;;;4.18;1.02;;;;;;;17.42;100.00;102094.97;2614558;36;20038;-58
2022/07/16 03:40:28;;;;;;;4.05;1.58;;;;;;;17.55;100.00;102101.94;2613237;36;20037;-58
2022/07/16 03:42:56;;;;;;;3.03;1.35;;;;;;;17.57;100.00;102105.38;2614231;31;20579;-57
2022/07/16 03:45:25;;;;;;;2.95;1.10;;;;;;;17.63;100.00;102104.75;2613255;36;20057;-57
2022/07/16 03:47:53;;;;;;;2.00;1.02;;;;;;;17.47;100.00;102119.03;2607366;36;20648;-57
2022/07/16 03:50:22;;;;;;;4.25;0.98;;;;;;;17.53;100.00;102112.97;2614522;36;20601;-59
2022/07/16 03:52:50;;;;;;;3.45;1.00;;;;;;;17.60;100.00;102118.69;2613983;36;20034;-57
2022/07/16 03:55:18;;;;;;;3.63;0.88;;;;;;;17.57;100.00;102124.44;2615714;31;20042;-57
2022/07/16 03:57:49;;;;;;;3.03;0.98;;;;;;;17.50;100.00;102124.16;2614825;36;20071;-58
2022/07/16 04:00:18;;;;;;;2.60;1.13;;;;;;;17.53;100.00;102137.47;2615466;36;20030;-56
2022/07/16 04:02:46;;;;;;;2.42;1.30;;;;;;;17.19;100.00;102129.03;2614857;36;20061;-58
2022/07/16 04:05:14;;;;;;;3.53;1.10;;;;;;;17.23;100.00;102131.31;2615874;36;20097;-56
2022/07/16 04:07:43;;;;;;;2.43;1.20;;;;;;;17.09;100.00;102148.97;2615493;36;20564;-58
2022/07/16 04:10:11;;;;;;;5.32;1.15;;;;;;;17.23;100.00;102135.91;2615226;36;20303;-56
2022/07/16 04:12:40;;;;;;;1.85;1.10;;;;;;;17.28;100.00;102133.56;2614845;36;20060;-58
2022/07/16 04:15:11;;;;;;;2.93;1.07;;;;;;;17.14;100.00;102143.94;2615287;36;20034;-57
2022/07/16 04:17:39;;;;;;;4.38;1.10;;;;;;;17.14;100.00;102141.22;2614938;36;20034;-58
2022/07/16 04:20:09;;;;;;;2.53;1.37;;;;;;;17.01;100.00;102142.56;2615569;36;20080;-54
2022/07/16 04:22:37;;;;;;;3.85;1.30;;;;;;;16.96;100.00;102146.56;2614906;36;20041;-56
2022/07/16 04:25:07;;;;;;;2.87;1.20;;;;;;;16.99;100.00;102139.97;2615538;36;20041;-58
2022/07/16 04:27:35;;;;;;;3.00;1.10;;;;;;;16.89;100.00;102147.31;2614984;36;20038;-59
2022/07/16 04:30:03;;;;;;;6.43;1.15;;;;;;;16.98;100.00;102140.97;2615987;31;20591;-57
2022/07/16 04:32:34;;;;;;;1.73;1.10;;;;;;;16.81;100.00;102148.84;2614394;36;20042;-58
2022/07/16 04:35:03;;;;;;;3.97;1.33;;;;;;;16.82;100.00;102155.97;2615311;36;20057;-57
2022/07/16 04:37:31;;;;;;;2.40;1.10;;;;;;;16.82;100.00;102161.41;2615326;36;20038;-57
2022/07/16 04:39:59;;;;;;;2.17;1.20;;;;;;;16.91;100.00;102157.00;2615500;36;20042;-57
2022/07/16 04:42:28;;;;;;;2.63;1.00;;;;;;;16.85;100.00;102154.84;2614030;31;20844;-57
2022/07/16 04:44:56;;;;;;;2.53;1.40;;;;;;;16.90;100.00;102171.63;2615417;36;20035;-59
2022/07/16 04:47:24;;;;;;;1.47;1.13;;;;;;;17.01;100.00;102170.59;2614877;36;20333;-56
2022/07/16 04:49:55;;;;;;;2.67;1.10;;;;;;;16.87;100.00;102162.84;2615756;36;20030;-58
2022/07/16 04:52:24;;;;;;;2.10;1.13;;;;;;;16.75;100.00;102171.16;2614484;36;20055;-58
2022/07/16 04:54:52;;;;;;;5.75;1.42;;;;;;;16.86;100.00;102182.88;2615453;36;20038;-59
2022/07/16 04:57:20;;;;;;;7.10;1.33;;;;;;;16.77;100.00;102177.31;2615143;31;20055;-58
2022/07/16 04:59:49;;;;;;;2.07;1.33;;;;;;;16.89;100.00;102177.22;2614800;31;20030;-58
2022/07/16 05:05:00;;;;;;;4.45;1.20;;;;;;;16.93;100.00;102187.66;2615737;31;20653;-60
2022/07/16 05:07:29;;;;;;;1.63;1.00;;;;;;;16.92;100.00;102185.06;2615273;36;20022;-57
2022/07/16 05:09:57;;;;;;;2.72;1.20;;;;;;;16.94;100.00;102181.19;2615385;36;20035;-56
2022/07/16 05:12:25;;;;;;;2.23;1.13;;;;;;;16.87;100.00;102182.81;2614467;36;20057;-58
2022/07/16 05:14:54;;;;;;;3.70;1.33;;;;;;;16.90;100.00;102189.78;2614727;36;20038;-58
2022/07/16 05:17:22;;;;;;;6.65;1.90;;;;;;;16.95;100.00;102192.94;2615783;36;20043;-59
2022/07/16 05:19:50;;;;;;;4.95;1.40;;;;;;;16.91;100.00;102197.78;2615802;36;20030;-59
2022/07/16 05:22:21;;;;;;;4.30;1.13;;;;;;;17.07;100.00;102190.91;2614917;31;20412;-56
2022/07/16 05:24:49;;;;;;;2.17;1.25;;;;;;;17.11;100.00;102187.75;2614818;36;20595;-56
2022/07/16 05:27:18;;;;;;;3.90;1.33;;;;;;;17.13;100.00;102196.63;2615084;36;20031;-59
2022/07/16 05:29:46;;;;;;;3.07;1.23;;;;;;;17.15;100.00;102197.34;2615822;31;20543;-60
2022/07/16 05:32:14;;;;;;;3.40;1.20;;;;;;;17.13;100.00;102195.75;2613667;36;20034;-59
2022/07/16 05:34:43;;;;;;;2.60;1.00;;;;;;;17.22;100.00;102215.78;2615303;36;20288;-57
2022/07/16 05:37:11;;;;;;;4.67;1.00;;;;;;;17.05;100.00;102209.22;2615319;36;20445;-58
2022/07/16 05:39:42;;;;;;;4.30;1.27;;;;;;;17.03;100.00;102212.09;2615444;36;20034;-56
2022/07/16 05:42:10;;;;;;;1.83;0.80;;;;;;;17.08;100.00;102207.09;2614668;31;20035;-59
2022/07/16 05:44:38;;;;;;;2.90;1.17;;;;;;;17.09;100.00;102211.53;2615549;31;20459;-55
2022/07/16 05:47:07;;;;;;;4.37;0.80;;;;;;;17.20;100.00;102206.94;2615357;36;20030;-59
2022/07/16 05:49:35;;;;;;;2.17;0.80;;;;;;;17.08;100.00;102209.81;2614453;36;20296;-58
2022/07/16 05:52:03;;;;;;;1.83;0.63;;;;;;;17.17;100.00;102221.69;2613698;36;20451;-57
2022/07/16 05:54:32;;;;;;;3.23;0.97;;;;;;;17.26;100.00;102214.50;2614200;36;20310;-58
2022/07/16 05:57:02;;;;;;;4.43;1.00;;;;;;;17.29;100.00;102217.78;2614308;36;20034;-56
2022/07/16 05:59:31;;;;;;;1.80;0.80;;;;;;;17.34;100.00;102220.94;2613338;36;20059;-55
2022/07/16 06:01:59;;;;;;;3.13;0.90;;;;;;;17.36;100.00;102226.22;2614744;36;20035;-59
2022/07/16 06:04:27;;;;;;;2.47;0.97;;;;;;;17.45;100.00;102228.03;2614584;36;20072;-56
2022/07/16 06:06:56;;;;;;;1.90;0.93;;;;;;;17.56;100.00;102240.59;2614271;36;20536;-58
2022/07/16 06:09:24;;;;;;;3.00;1.00;;;;;;;17.28;100.00;102242.41;2615323;36;20061;-57
2022/07/16 06:11:52;;;;;;;1.53;0.80;;;;;;;17.37;100.00;102241.53;2615004;31;20559;-57
2022/07/16 06:14:23;;;;;;;3.07;0.90;;;;;;;17.37;100.00;102243.41;2614719;36;20079;-57
2022/07/16 06:16:52;;;;;;;2.50;0.90;;;;;;;17.48;100.00;102252.25;2613484;36;20326;-57
2022/07/16 06:19:20;;;;;;;1.07;0.70;;;;;;;17.37;100.00;102257.84;2614559;31;20031;-57
2022/07/16 06:21:49;;;;;;;3.85;0.90;;;;;;;17.54;100.00;102245.34;2615042;36;20303;-58
2022/07/16 06:24:17;;;;;;;3.92;0.90;;;;;;;17.92;100.00;102261.72;2614746;36;20030;-57
2022/07/16 06:26:49;;;;;;;2.53;0.80;;;;;;;17.64;100.00;102259.78;2614605;36;20034;-60
2022/07/16 06:29:18;;;;;;;2.88;1.17;;;;;;;17.56;100.00;102250.66;2614102;36;20061;-60
2022/07/16 06:31:49;;;;;;;3.13;1.13;;;;;;;17.80;100.00;102259.16;2614958;36;20421;-58
2022/07/16 06:34:17;;;;;;;2.97;0.90;;;;;;;17.76;100.00;102263.19;2614562;36;20038;-59
2022/07/16 06:36:45;;;;;;;2.53;0.90;;;;;;;17.90;100.00;102258.28;2614489;36;20461;-58
2022/07/16 06:39:13;;;;;;;1.47;0.63;;;;;;;18.10;100.00;102253.63;2615779;36;20666;-55
2022/07/16 06:41:42;;;;;;;4.63;1.00;;;;;;;18.44;100.00;102256.56;2614895;36;20820;-57
2022/07/16 06:44:10;;;;;;;2.70;1.13;;;;;;;18.78;100.00;102266.78;2614933;36;20031;-60
2022/07/16 06:46:39;;;;;;;3.97;0.80;;;;;;;18.63;100.00;102271.91;2615730;31;20875;-59
2022/07/16 06:49:10;;;;;;;7.18;1.10;;;;;;;18.99;100.00;102274.69;2614071;36;20023;-61
2022/07/16 06:51:38;;;;;;;2.72;0.90;;;;;;;19.40;100.00;102276.88;2613818;36;20030;-58
2022/07/16 06:54:06;;;;;;;4.43;1.00;;;;;;;19.02;100.00;102288.03;2612875;36;20061;-58
2022/07/16 06:56:35;;;;;;;2.35;0.70;;;;;;;18.38;100.00;102290.72;2614413;36;20045;-57
2022/07/16 06:59:03;;;;;;;2.15;1.10;;;;;;;18.59;100.00;102286.03;2612786;36;20552;-58
2022/07/16 07:01:31;;;;;;;3.15;0.80;;;;;;;18.86;100.00;102296.91;2613504;36;20071;-60
2022/07/16 07:04:00;;;;;;;2.28;0.73;;;;;;;19.23;100.00;102295.84;2613822;36;20069;-58
2022/07/16 07:06:31;;;;;;;2.67;0.80;;;;;;;19.03;100.00;102288.88;2614412;36;20047;-61
2022/07/16 07:08:59;;;;;;;5.53;1.00;;;;;;;19.01;100.00;102301.81;2613331;36;20054;-59
2022/07/16 07:11:27;;;;;;;2.80;0.80;;;;;;;18.92;100.00;102303.63;2614550;36;20042;-57
2022/07/16 07:13:55;;;;;;;2.00;0.82;;;;;;;18.63;100.00;102299.19;2614291;36;20110;-58
2022/07/16 07:16:24;;;;;;;3.07;0.80;;;;;;;18.66;100.00;102311.66;2613049;36;20555;-58
2022/07/16 07:18:52;;;;;;;1.90;0.70;;;;;;;18.89;100.00;102307.50;2613383;36;20134;-56
2022/07/16 07:21:21;;;;;;;1.35;0.85;;;;;;;18.84;100.00;102306.22;2613826;36;20031;-57
2022/07/16 07:23:51;;;;;;;3.00;0.70;;;;;;;19.06;100.00;102319.41;2615063;31;20030;-61
2022/07/16 07:26:20;;;;;;;2.88;0.75;;;;;;;19.06;100.00;102329.47;2615179;36;20093;-58
2022/07/16 07:28:48;;;;;;;4.93;0.97;;;;;;;19.01;100.00;102340.88;2593956;36;20069;-59
2022/07/16 07:31:18;;;;;;;6.55;0.82;;;;;;;18.88;100.00;102329.47;2613494;36;21136;-58
2022/07/16 07:33:46;;;;;;;3.58;0.93;;;;;;;18.86;100.00;102335.09;2615150;36;20053;-54
2022/07/16 07:36:14;;;;;;;2.72;0.93;;;;;;;18.95;100.00;102316.06;2615455;36;20038;-57
2022/07/16 07:38:43;;;;;;;4.47;0.82;;;;;;;19.20;100.00;102339.84;2613534;36;20049;-57
2022/07/16 07:41:14;;;;;;;1.98;0.73;;;;;;;19.33;100.00;102330.38;2615635;36;20035;-58
2022/07/16 07:43:42;;;;;;;1.88;0.90;;;;;;;18.69;100.00;102327.72;2615168;36;20038;-58
2022/07/16 07:46:10;;;;;;;2.03;0.87;;;;;;;19.43;100.00;102322.97;2615394;36;20061;-59
2022/07/16 07:48:41;;;;;;;1.52;0.73;;;;;;;19.66;100.00;102323.31;2615695;36;20302;-58
2022/07/16 07:51:11;;;;;;;1.70;0.88;;;;;;;20.15;96.04;102336.41;2614772;36;20030;-59
2022/07/16 07:53:40;;;;;;;1.88;0.65;;;;;;;19.21;100.00;102325.19;2612389;36;20974;-59
2022/07/16 07:56:10;;;;;;;5.03;0.82;;;;;;;19.82;100.00;102338.09;2614292;36;20031;-60
2022/07/16 07:58:42;;;;;;;1.95;0.70;;;;;;;19.60;100.00;102341.19;2613214;36;20126;-59
2022/07/16 08:01:11;;;;;;;2.05;0.63;;;;;;;19.08;100.00;102341.13;2615184;36;20555;-59
2022/07/16 08:03:39;;;;;;;1.38;0.52;;;;;;;19.17;100.00;102345.63;2615275;36;20043;-59
2022/07/16 08:06:07;;;;;;;4.75;0.73;;;;;;;19.52;100.00;102343.88;2616219;36;20498;-58
2022/07/16 08:08:38;;;;;;;3.47;0.82;;;;;;;19.59;95.53;102355.84;2614997;36;20568;-60
2022/07/16 08:11:07;;;;;;;4.40;0.60;;;;;;;19.41;94.61;102352.31;2615446;36;20480;-57
2022/07/16 08:13:35;;;;;;;1.27;0.45;;;;;;;19.66;100.00;102355.22;2615143;36;20107;-60
2022/07/16 08:16:06;;;;;;;2.60;0.80;;;;;;;19.75;96.66;102348.81;2615523;31;20041;-55
2022/07/16 08:18:35;;;;;;;2.33;0.55;;;;;;;20.36;90.40;102357.88;2615204;36;20054;-59
2022/07/16 08:21:03;;;;;;;1.58;0.60;;;;;;;20.64;82.15;102355.75;2615255;36;20030;-60
2022/07/16 08:26:14;;;;;;;3.58;0.77;;;;;;;20.05;88.83;102358.44;2614532;36;20035;-56
2022/07/16 08:28:44;;;;;;;2.50;0.68;;;;;;;19.75;98.54;102359.72;2614697;36;20045;-60
2022/07/16 08:31:15;;;;;;;3.75;0.70;;;;;;;19.64;100.00;102368.19;2614939;36;20034;-60
2022/07/16 08:33:44;;;;;;;1.15;0.50;;;;;;;20.14;96.10;102370.25;2615214;36;20042;-60
2022/07/16 08:36:13;;;;;;;1.60;0.60;;;;;;;20.59;89.01;102374.53;2615153;36;20037;-59
2022/07/16 08:38:41;;;;;;;2.03;0.60;;;;;;;20.57;85.65;102371.13;2613318;36;20041;-60
2022/07/16 08:41:10;;;;;;;2.05;0.80;;;;;;;20.96;94.71;102370.56;2613649;36;20042;-60
2022/07/16 08:43:39;;;;;;;2.10;0.68;;;;;;;21.04;79.70;102388.03;2612898;36;20061;-59
2022/07/16 08:46:09;;;;;;;2.25;0.70;;;;;;;20.23;85.14;102391.16;2613014;31;20037;-58
2022/07/16 08:48:42;;;;;;;6.80;1.05;;;;;;;19.97;92.29;102395.78;2613435;36;20023;-59
2022/07/16 08:51:12;;;;;;;0.80;0.60;;;;;;;20.15;84.75;102388.34;2615064;36;20038;-60
2022/07/16 08:53:42;;;;;;;5.82;1.13;;;;;;;20.52;87.21;102383.56;2613552;36;20034;-58
2022/07/16 08:56:11;;;;;;;3.10;1.15;;;;;;;20.59;90.85;102393.69;2615464;32;20037;-58
2022/07/16 08:58:39;;;;;;;4.63;0.85;;;;;;;21.29;90.44;102388.91;2616056;36;20039;-58
2022/07/16 09:01:09;;;;;;;3.63;0.85;;;;;;;21.29;78.45;102397.13;2616855;36;20038;-60
2022/07/16 09:03:40;;;;;;;2.58;0.77;;;;;;;20.48;79.88;102394.00;2614953;36;20031;-59
2022/07/16 09:06:08;;;;;;;1.70;0.73;;;;;;;21.31;88.56;102390.47;2616673;36;20023;-60
2022/07/16 09:08:37;;;;;;;3.35;0.70;;;;;;;22.49;75.63;102383.63;2614901;36;20043;-57
2022/07/16 09:11:19;;;;;;;0.98;0.60;;;;;;;22.43;71.00;102400.81;2613161;36;20041;-59
2022/07/16 09:14:05;;;;;;;2.17;0.70;;;;;;;21.20;72.55;102399.03;2615430;36;20451;-57
2022/07/16 09:16:36;;;;;;;4.45;0.77;;;;;;;20.21;87.89;102415.03;2614427;36;20065;-50
2022/07/16 09:19:13;;;;;;;2.47;0.70;;;;;;;20.09;88.77;102417.19;2614602;36;20026;-57
2022/07/16 09:22:02;;;;;;;1.38;0.50;;;;;;;21.07;81.69;102409.59;2614436;31;20034;-59
2022/07/16 09:24:40;;;;;;;3.00;0.80;;;;;;;21.26;80.87;102414.78;2613540;36;20081;-56
2022/07/16 09:27:11;;;;;;;2.15;0.77;;;;;;;21.56;82.72;102411.59;2613699;36;20039;-55
2022/07/16 09:29:47;;;;;;;2.05;0.60;;;;;;;21.63;83.48;102421.69;2614757;36;20142;-56
2022/07/16 09:32:27;;;;;;;3.22;0.75;;;;;;;21.20;89.43;102414.59;2614465;31;20038;-57
2022/07/16 09:35:09;;;;;;;2.35;0.95;;;;;;;20.24;97.97;102425.69;2614773;36;20038;-55
2022/07/16 09:37:50;;;;;;;2.65;0.95;;;;;;;20.31;100.00;102432.19;2614917;36;20041;-53
2022/07/16 09:40:32;;;;;;;4.30;0.82;;;;;;;21.05;100.00;102433.56;2613999;36;20034;-54
2022/07/16 09:43:00;;;;;;;6.53;0.80;;;;;;;21.80;90.85;102427.16;2614410;36;20039;-55
2022/07/16 09:45:29;;;;;;;3.47;0.80;;;;;;;21.62;90.49;102439.13;2614724;36;20680;-55
2022/07/16 09:47:57;;;;;;;4.32;0.70;;;;;;;21.39;89.29;102435.31;2614019;31;20031;-56
2022/07/16 09:50:37;;;;;;;2.53;0.70;;;;;;;20.90;93.51;102447.88;2615166;31;20540;-54
2022/07/16 09:53:16;;;;;;;4.28;0.85;;;;;;;21.52;89.60;102442.06;2613573;36;20065;-57
2022/07/16 09:55:57;;;;;;;3.15;0.60;;;;;;;22.04;82.08;102449.06;2615040;31;20704;-55
2022/07/16 09:58:25;;;;;;;2.25;0.68;;;;;;;21.40;81.79;102448.00;2614576;36;20038;-56
2022/07/16 10:00:54;;;;;;;2.83;1.00;;;;;;;21.28;82.14;102456.53;2614579;36;20089;-58
2022/07/16 10:03:22;;;;;;;9.32;2.80;;;;;;;21.22;86.25;102456.38;2614307;36;20073;-54
2022/07/16 10:05:53;;;;;;;4.10;1.00;;;;;;;21.38;87.98;102448.16;2615096;36;20426;-53
2022/07/16 10:08:22;;;;;;;2.67;1.05;;;;;;;21.46;80.62;102453.63;2614664;36;20135;-52
2022/07/16 10:10:51;;;;;;;3.47;0.63;;;;;;;21.22;81.35;102450.88;2614172;31;20038;-54
2022/07/16 10:13:25;;;;;;;4.32;0.80;;;;;;;21.18;87.72;102458.56;2614756;36;20061;-56
2022/07/16 10:15:53;;;;;;;2.28;0.80;;;;;;;22.12;80.47;102453.66;2614959;36;20041;-54
2022/07/16 10:18:37;;;;;;;1.70;0.90;;;;;;;21.50;76.35;102467.88;2613174;36;20038;-56
2022/07/16 10:24:21;;;;;;;3.00;0.93;;;;;;;20.97;81.20;102470.81;2617674;36;20380;-53
2022/07/16 10:27:19;;;;;;;4.20;0.80;;;;;;;21.10;80.41;102483.19;2617388;36;20173;-55
2022/07/16 10:29:47;;;;;;;3.05;0.70;;;;;;;21.02;80.28;102477.69;2617706;36;20023;-57
2022/07/16 10:32:30;;;;;;;3.15;0.70;;;;;;;21.14;83.35;102479.09;2618124;36;20057;-54
2022/07/16 10:35:05;;;;;;;2.88;0.90;;;;;;;22.02;75.86;102475.78;2617697;36;20073;-58
2022/07/16 10:37:33;;;;;;;3.88;0.88;;;;;;;22.02;70.21;102474.94;2616391;36;20041;-62
2022/07/16 10:40:12;;;;;;;4.25;1.05;;;;;;;21.69;70.13;102481.28;2618273;36;20053;-56
2022/07/16 10:42:41;;;;;;;2.50;1.10;;;;;;;21.12;75.82;102481.97;2619167;36;20059;-60
2022/07/16 10:45:12;;;;;;;2.78;0.63;;;;;;;20.85;76.14;102491.31;2618686;36;20034;-62
2022/07/16 10:47:50;;;;;;;2.55;0.70;;;;;;;20.76;78.08;102492.28;2618118;36;20038;-58
2022/07/16 10:50:24;;;;;;;2.30;0.80;;;;;;;21.38;78.41;102483.78;2618991;36;20069;-57
2022/07/16 10:52:54;;;;;;;5.95;0.80;;;;;;;21.76;74.19;102486.06;2617334;36;21979;-56
2022/07/16 10:55:37;;;;;;;2.42;1.08;;;;;;;22.18;69.74;102496.00;2619470;36;20539;-56
2022/07/16 10:58:05;;;;;;;2.63;0.68;;;;;;;22.13;67.98;102491.03;2618457;36;20176;-54
2022/07/16 11:00:34;;;;;;;1.88;0.90;;;;;;;21.93;70.23;102501.47;2617780;36;20038;-60
2022/07/16 11:03:04;;;;;;;2.17;0.80;;;;;;;22.08;68.52;102506.28;2617367;36;20056;-58
2022/07/16 11:05:34;;;;;;;2.03;0.60;;;;;;;22.08;69.48;102507.13;2619101;36;20113;-58
2022/07/16 11:08:11;;;;;;;2.00;0.50;;;;;;;22.03;66.03;102507.66;2618173;31;20037;-58
2022/07/16 11:10:43;;;;;;;2.22;0.82;;;;;;;22.80;65.40;102508.22;2618307;36;20034;-59
2022/07/16 11:13:17;;;;;;;3.83;1.00;;;;;;;22.51;63.43;102504.19;2617031;36;20547;-59
2022/07/16 11:21:07;;;;;;;3.00;0.88;;;;;;;22.74;65.09;102496.91;2616044;36;20879;-57
2022/07/16 11:23:49;;;;;;;2.58;0.77;;;;;;;23.24;64.95;102496.72;2616703;36;20057;-60
2022/07/16 11:26:19;;;;;;;3.25;0.70;;;;;;;23.59;64.51;102500.78;2617287;36;20548;-50
2022/07/16 11:30:42;;;;;;;4.40;0.82;;;;;;;22.14;65.98;102497.34;2615166;36;21381;-53
2022/07/16 11:33:12;;;;;;;5.75;0.98;;;;;;;22.34;77.96;102506.97;2616599;36;20201;-51
2022/07/16 11:35:43;;;;;;;3.65;0.70;;;;;;;22.55;70.66;102498.16;2593789;36;20475;-53
2022/07/16 11:38:12;;;;;;;1.52;0.60;;;;;;;23.08;66.60;102503.97;2617612;31;20053;-52
2022/07/16 11:40:42;;;;;;;1.05;0.55;;;;;;;23.27;65.22;102508.19;2617089;36;21264;-51
2022/07/16 11:43:12;;;;;;;3.63;1.00;;;;;;;23.36;62.67;102511.75;2618067;31;20030;-54
2022/07/16 11:45:48;;;;;;;3.03;0.85;;;;;;;23.39;62.32;102500.38;2615974;36;20399;-51
2022/07/16 11:48:19;;;;;;;1.83;0.50;;;;;;;23.27;60.12;102510.09;2617931;36;20412;-51
2022/07/16 11:50:49;;;;;;;2.28;0.68;;;;;;;22.49;59.13;102503.50;2615527;36;20159;-49
2022/07/16 11:53:29;;;;;;;1.50;0.50;;;;;;;22.93;65.14;102516.75;2616110;36;20042;-52
2022/07/16 11:55:57;;;;;;;3.70;1.00;;;;;;;22.68;63.40;102505.00;2617524;36;20065;-48